sensor_id;sensor_type;location;lat;lon;timestamp;P1;durP1;ratioP1;P2;durP2;ratioP2
49590;SDS011;35496;-21.974;-46.800;2023-08-24T00:01:00;6.43;;;5.75;;
49590;SDS011;35496;-21.974;-46.800;2023-08-24T00:03:25;11.48;;;6.38;;
49590;SDS011;35496;-21.974;-46.800;2023-08-24T00:05:52;13.07;;;6.03;;
49590;SDS011;35496;-21.974;-46.800;2023-08-24T00:08:17;14.52;;;7.10;;
49590;SDS011;35496;-21.974;-46.800;2023-08-24T00:10:44;11.27;;;5.80;;
49590;SDS011;35496;-21.974;-46.800;2023-08-24T00:13:13;8.48;;;4.88;;
49590;SDS011;35496;-21.974;-46.800;2023-08-24T00:15:39;11.52;;;6.30;;
49590;SDS011;35496;-21.974;-46.800;2023-08-24T00:18:06;9.35;;;5.22;;
49590;SDS011;35496;-21.974;-46.800;2023-08-24T00:20:32;11.25;;;6.82;;
49590;SDS011;35496;-21.974;-46.800;2023-08-24T00:22:58;6.70;;;5.78;;
49590;SDS011;35496;-21.974;-46.800;2023-08-24T00:25:24;9.27;;;5.03;;
49590;SDS011;35496;-21.974;-46.800;2023-08-24T00:27:53;16.50;;;4.93;;
49590;SDS011;35496;-21.974;-46.800;2023-08-24T00:30:20;7.60;;;5.40;;
49590;SDS011;35496;-21.974;-46.800;2023-08-24T00:32:47;9.98;;;6.10;;
49590;SDS011;35496;-21.974;-46.800;2023-08-24T00:35:13;6.80;;;4.70;;
49590;SDS011;35496;-21.974;-46.800;2023-08-24T00:37:40;6.05;;;4.40;;
49590;SDS011;35496;-21.974;-46.800;2023-08-24T00:40:06;7.07;;;5.10;;
49590;SDS011;35496;-21.974;-46.800;2023-08-24T00:42:42;8.80;;;4.80;;
49590;SDS011;35496;-21.974;-46.800;2023-08-24T00:45:09;9.35;;;5.68;;
49590;SDS011;35496;-21.974;-46.800;2023-08-24T00:47:37;8.35;;;6.55;;
49590;SDS011;35496;-21.974;-46.800;2023-08-24T00:50:03;8.50;;;7.55;;
49590;SDS011;35496;-21.974;-46.800;2023-08-24T00:52:30;9.05;;;5.90;;
49590;SDS011;35496;-21.974;-46.800;2023-08-24T00:54:59;11.05;;;5.15;;
49590;SDS011;35496;-21.974;-46.800;2023-08-24T00:57:29;8.05;;;6.75;;
49590;SDS011;35496;-21.974;-46.800;2023-08-24T00:59:56;7.20;;;6.03;;
49590;SDS011;35496;-21.974;-46.800;2023-08-24T01:02:22;8.25;;;6.00;;
49590;SDS011;35496;-21.974;-46.800;2023-08-24T01:04:48;12.85;;;5.07;;
49590;SDS011;35496;-21.974;-46.800;2023-08-24T01:07:14;9.43;;;5.57;;
49590;SDS011;35496;-21.974;-46.800;2023-08-24T01:09:41;10.50;;;5.93;;
49590;SDS011;35496;-21.974;-46.800;2023-08-24T01:17:13;12.20;;;6.10;;
49590;SDS011;35496;-21.974;-46.800;2023-08-24T01:19:41;9.55;;;6.88;;
49590;SDS011;35496;-21.974;-46.800;2023-08-24T01:27:05;16.25;;;6.68;;
49590;SDS011;35496;-21.974;-46.800;2023-08-24T01:29:31;11.80;;;6.97;;
49590;SDS011;35496;-21.974;-46.800;2023-08-24T01:31:58;10.07;;;7.93;;
49590;SDS011;35496;-21.974;-46.800;2023-08-24T01:34:24;12.23;;;8.50;;
49590;SDS011;35496;-21.974;-46.800;2023-08-24T01:36:50;12.90;;;8.85;;
49590;SDS011;35496;-21.974;-46.800;2023-08-24T01:39:29;11.55;;;9.27;;
49590;SDS011;35496;-21.974;-46.800;2023-08-24T01:41:56;18.25;;;11.10;;
49590;SDS011;35496;-21.974;-46.800;2023-08-24T01:44:24;12.82;;;11.45;;
49590;SDS011;35496;-21.974;-46.800;2023-08-24T01:46:51;22.63;;;10.50;;
49590;SDS011;35496;-21.974;-46.800;2023-08-24T01:49:18;27.40;;;10.88;;
49590;SDS011;35496;-21.974;-46.800;2023-08-24T01:51:44;15.50;;;11.07;;
49590;SDS011;35496;-21.974;-46.800;2023-08-24T01:54:11;20.63;;;13.77;;
49590;SDS011;35496;-21.974;-46.800;2023-08-24T01:56:37;24.85;;;15.60;;
49590;SDS011;35496;-21.974;-46.800;2023-08-24T01:59:03;21.02;;;14.32;;
49590;SDS011;35496;-21.974;-46.800;2023-08-24T02:01:29;16.30;;;9.95;;
49590;SDS011;35496;-21.974;-46.800;2023-08-24T02:03:55;21.10;;;8.82;;
49590;SDS011;35496;-21.974;-46.800;2023-08-24T02:06:21;18.52;;;10.18;;
49590;SDS011;35496;-21.974;-46.800;2023-08-24T02:08:47;14.02;;;9.35;;
49590;SDS011;35496;-21.974;-46.800;2023-08-24T02:11:13;13.38;;;7.45;;
49590;SDS011;35496;-21.974;-46.800;2023-08-24T02:13:42;14.07;;;8.30;;
49590;SDS011;35496;-21.974;-46.800;2023-08-24T02:16:08;15.77;;;6.03;;
49590;SDS011;35496;-21.974;-46.800;2023-08-24T02:18:34;21.08;;;7.93;;
49590;SDS011;35496;-21.974;-46.800;2023-08-24T02:21:01;18.80;;;8.77;;
49590;SDS011;35496;-21.974;-46.800;2023-08-24T02:23:32;33.47;;;10.52;;
49590;SDS011;35496;-21.974;-46.800;2023-08-24T02:25:58;25.48;;;11.98;;
49590;SDS011;35496;-21.974;-46.800;2023-08-24T02:28:24;36.45;;;12.52;;
49590;SDS011;35496;-21.974;-46.800;2023-08-24T02:30:50;23.60;;;10.40;;
49590;SDS011;35496;-21.974;-46.800;2023-08-24T02:33:19;19.42;;;11.00;;
49590;SDS011;35496;-21.974;-46.800;2023-08-24T02:35:48;21.02;;;11.80;;
49590;SDS011;35496;-21.974;-46.800;2023-08-24T02:38:14;19.27;;;10.35;;
49590;SDS011;35496;-21.974;-46.800;2023-08-24T02:40:40;30.85;;;10.85;;
49590;SDS011;35496;-21.974;-46.800;2023-08-24T02:43:06;17.73;;;10.25;;
49590;SDS011;35496;-21.974;-46.800;2023-08-24T02:45:33;17.55;;;10.88;;
49590;SDS011;35496;-21.974;-46.800;2023-08-24T02:47:59;21.10;;;11.00;;
49590;SDS011;35496;-21.974;-46.800;2023-08-24T02:50:25;25.67;;;9.50;;
49590;SDS011;35496;-21.974;-46.800;2023-08-24T02:52:51;27.38;;;10.88;;
49590;SDS011;35496;-21.974;-46.800;2023-08-24T02:55:17;13.25;;;8.77;;
49590;SDS011;35496;-21.974;-46.800;2023-08-24T02:57:43;22.42;;;12.38;;
49590;SDS011;35496;-21.974;-46.800;2023-08-24T03:00:09;30.33;;;13.60;;
49590;SDS011;35496;-21.974;-46.800;2023-08-24T03:02:38;25.92;;;13.85;;
49590;SDS011;35496;-21.974;-46.800;2023-08-24T03:05:05;28.90;;;14.23;;
49590;SDS011;35496;-21.974;-46.800;2023-08-24T03:07:32;36.90;;;13.77;;
49590;SDS011;35496;-21.974;-46.800;2023-08-24T03:09:58;22.88;;;13.20;;
49590;SDS011;35496;-21.974;-46.800;2023-08-24T03:12:24;25.95;;;14.18;;
49590;SDS011;35496;-21.974;-46.800;2023-08-24T03:14:53;29.33;;;15.15;;
49590;SDS011;35496;-21.974;-46.800;2023-08-24T03:17:20;23.67;;;13.13;;
49590;SDS011;35496;-21.974;-46.800;2023-08-24T03:19:46;34.25;;;13.55;;
49590;SDS011;35496;-21.974;-46.800;2023-08-24T03:22:12;29.00;;;13.68;;
49590;SDS011;35496;-21.974;-46.800;2023-08-24T03:24:38;22.35;;;13.25;;
49590;SDS011;35496;-21.974;-46.800;2023-08-24T03:27:04;29.60;;;12.02;;
49590;SDS011;35496;-21.974;-46.800;2023-08-24T03:29:31;38.05;;;13.68;;
49590;SDS011;35496;-21.974;-46.800;2023-08-24T03:31:56;26.48;;;13.48;;
49590;SDS011;35496;-21.974;-46.800;2023-08-24T03:34:22;23.05;;;13.27;;
49590;SDS011;35496;-21.974;-46.800;2023-08-24T03:36:48;25.58;;;12.75;;
49590;SDS011;35496;-21.974;-46.800;2023-08-24T03:39:14;19.08;;;10.70;;
49590;SDS011;35496;-21.974;-46.800;2023-08-24T03:41:43;22.50;;;11.55;;
49590;SDS011;35496;-21.974;-46.800;2023-08-24T03:44:11;18.83;;;10.73;;
49590;SDS011;35496;-21.974;-46.800;2023-08-24T03:46:37;18.67;;;10.00;;
49590;SDS011;35496;-21.974;-46.800;2023-08-24T03:49:03;18.92;;;10.48;;
49590;SDS011;35496;-21.974;-46.800;2023-08-24T03:51:29;18.27;;;10.88;;
49590;SDS011;35496;-21.974;-46.800;2023-08-24T03:53:55;16.95;;;10.57;;
49590;SDS011;35496;-21.974;-46.800;2023-08-24T03:56:21;21.85;;;9.95;;
49590;SDS011;35496;-21.974;-46.800;2023-08-24T03:58:47;18.73;;;10.48;;
49590;SDS011;35496;-21.974;-46.800;2023-08-24T04:01:13;17.70;;;10.15;;
49590;SDS011;35496;-21.974;-46.800;2023-08-24T04:03:39;16.02;;;9.68;;
49590;SDS011;35496;-21.974;-46.800;2023-08-24T04:06:05;17.67;;;9.93;;
49590;SDS011;35496;-21.974;-46.800;2023-08-24T04:08:31;19.10;;;10.68;;
49590;SDS011;35496;-21.974;-46.800;2023-08-24T04:10:57;16.02;;;9.68;;
49590;SDS011;35496;-21.974;-46.800;2023-08-24T04:13:23;21.70;;;9.95;;
49590;SDS011;35496;-21.974;-46.800;2023-08-24T04:15:49;14.52;;;9.60;;
49590;SDS011;35496;-21.974;-46.800;2023-08-24T04:18:15;18.10;;;10.90;;
49590;SDS011;35496;-21.974;-46.800;2023-08-24T04:20:41;22.98;;;10.63;;
49590;SDS011;35496;-21.974;-46.800;2023-08-24T04:23:07;14.90;;;9.55;;
49590;SDS011;35496;-21.974;-46.800;2023-08-24T04:25:33;17.85;;;9.77;;
49590;SDS011;35496;-21.974;-46.800;2023-08-24T04:27:59;22.30;;;10.95;;
49590;SDS011;35496;-21.974;-46.800;2023-08-24T04:30:25;19.33;;;9.60;;
49590;SDS011;35496;-21.974;-46.800;2023-08-24T04:32:51;16.08;;;10.38;;
49590;SDS011;35496;-21.974;-46.800;2023-08-24T04:35:17;20.15;;;11.07;;
49590;SDS011;35496;-21.974;-46.800;2023-08-24T04:37:43;12.75;;;9.65;;
49590;SDS011;35496;-21.974;-46.800;2023-08-24T04:40:09;17.90;;;9.55;;
49590;SDS011;35496;-21.974;-46.800;2023-08-24T04:42:36;19.73;;;7.88;;
49590;SDS011;35496;-21.974;-46.800;2023-08-24T04:45:02;11.20;;;7.22;;
49590;SDS011;35496;-21.974;-46.800;2023-08-24T04:47:28;11.88;;;7.40;;
49590;SDS011;35496;-21.974;-46.800;2023-08-24T04:49:54;23.33;;;10.05;;
49590;SDS011;35496;-21.974;-46.800;2023-08-24T04:52:20;11.73;;;7.07;;
49590;SDS011;35496;-21.974;-46.800;2023-08-24T04:54:46;12.65;;;7.68;;
49590;SDS011;35496;-21.974;-46.800;2023-08-24T04:57:13;15.77;;;7.95;;
49590;SDS011;35496;-21.974;-46.800;2023-08-24T04:59:39;18.52;;;8.02;;
49590;SDS011;35496;-21.974;-46.800;2023-08-24T05:02:05;12.38;;;7.75;;
49590;SDS011;35496;-21.974;-46.800;2023-08-24T05:04:31;14.02;;;7.85;;
49590;SDS011;35496;-21.974;-46.800;2023-08-24T05:06:58;9.55;;;7.07;;
49590;SDS011;35496;-21.974;-46.800;2023-08-24T05:09:24;7.25;;;6.53;;
49590;SDS011;35496;-21.974;-46.800;2023-08-24T05:11:50;13.57;;;5.82;;
49590;SDS011;35496;-21.974;-46.800;2023-08-24T05:14:16;13.32;;;7.03;;
49590;SDS011;35496;-21.974;-46.800;2023-08-24T05:16:42;7.57;;;6.68;;
49590;SDS011;35496;-21.974;-46.800;2023-08-24T05:19:08;8.90;;;5.93;;
49590;SDS011;35496;-21.974;-46.800;2023-08-24T05:21:34;7.63;;;6.20;;
49590;SDS011;35496;-21.974;-46.800;2023-08-24T05:24:00;11.77;;;7.35;;
49590;SDS011;35496;-21.974;-46.800;2023-08-24T05:26:26;15.75;;;8.10;;
49590;SDS011;35496;-21.974;-46.800;2023-08-24T05:28:52;18.48;;;8.27;;
49590;SDS011;35496;-21.974;-46.800;2023-08-24T05:31:18;14.25;;;7.85;;
49590;SDS011;35496;-21.974;-46.800;2023-08-24T05:33:44;17.83;;;8.50;;
49590;SDS011;35496;-21.974;-46.800;2023-08-24T05:36:11;12.20;;;6.15;;
49590;SDS011;35496;-21.974;-46.800;2023-08-24T05:38:37;12.18;;;7.72;;
49590;SDS011;35496;-21.974;-46.800;2023-08-24T05:41:03;5.90;;;5.18;;
49590;SDS011;35496;-21.974;-46.800;2023-08-24T05:43:29;14.57;;;6.45;;
49590;SDS011;35496;-21.974;-46.800;2023-08-24T05:45:55;5.78;;;5.18;;
49590;SDS011;35496;-21.974;-46.800;2023-08-24T05:48:21;12.65;;;8.88;;
49590;SDS011;35496;-21.974;-46.800;2023-08-24T05:50:48;8.77;;;6.60;;
49590;SDS011;35496;-21.974;-46.800;2023-08-24T05:53:14;12.75;;;8.20;;
49590;SDS011;35496;-21.974;-46.800;2023-08-24T05:55:40;8.73;;;5.38;;
49590;SDS011;35496;-21.974;-46.800;2023-08-24T05:58:06;11.00;;;4.50;;
49590;SDS011;35496;-21.974;-46.800;2023-08-24T06:00:32;9.95;;;6.47;;
49590;SDS011;35496;-21.974;-46.800;2023-08-24T06:02:58;8.57;;;6.78;;
49590;SDS011;35496;-21.974;-46.800;2023-08-24T06:05:24;9.63;;;5.85;;
49590;SDS011;35496;-21.974;-46.800;2023-08-24T06:07:51;7.30;;;5.80;;
49590;SDS011;35496;-21.974;-46.800;2023-08-24T06:10:18;7.82;;;4.93;;
49590;SDS011;35496;-21.974;-46.800;2023-08-24T06:12:44;12.95;;;5.22;;
49590;SDS011;35496;-21.974;-46.800;2023-08-24T06:15:10;12.15;;;6.72;;
49590;SDS011;35496;-21.974;-46.800;2023-08-24T06:17:38;14.00;;;6.35;;
49590;SDS011;35496;-21.974;-46.800;2023-08-24T06:20:04;13.45;;;8.48;;
49590;SDS011;35496;-21.974;-46.800;2023-08-24T06:22:30;20.45;;;9.85;;
49590;SDS011;35496;-21.974;-46.800;2023-08-24T06:24:57;23.60;;;8.80;;
49590;SDS011;35496;-21.974;-46.800;2023-08-24T06:27:26;12.60;;;8.25;;
49590;SDS011;35496;-21.974;-46.800;2023-08-24T06:29:52;18.27;;;8.50;;
49590;SDS011;35496;-21.974;-46.800;2023-08-24T06:32:18;12.05;;;8.20;;
49590;SDS011;35496;-21.974;-46.800;2023-08-24T06:34:44;12.25;;;6.47;;
49590;SDS011;35496;-21.974;-46.800;2023-08-24T06:37:10;12.38;;;6.40;;
49590;SDS011;35496;-21.974;-46.800;2023-08-24T06:39:36;18.30;;;7.95;;
49590;SDS011;35496;-21.974;-46.800;2023-08-24T06:42:02;10.02;;;5.88;;
49590;SDS011;35496;-21.974;-46.800;2023-08-24T06:44:28;20.80;;;9.20;;
49590;SDS011;35496;-21.974;-46.800;2023-08-24T06:46:54;10.07;;;7.32;;
49590;SDS011;35496;-21.974;-46.800;2023-08-24T06:49:21;14.23;;;9.38;;
49590;SDS011;35496;-21.974;-46.800;2023-08-24T06:51:47;16.33;;;7.88;;
49590;SDS011;35496;-21.974;-46.800;2023-08-24T06:54:13;20.65;;;8.73;;
49590;SDS011;35496;-21.974;-46.800;2023-08-24T06:56:40;21.30;;;9.00;;
49590;SDS011;35496;-21.974;-46.800;2023-08-24T06:59:06;15.15;;;9.93;;
49590;SDS011;35496;-21.974;-46.800;2023-08-24T07:01:32;15.25;;;9.48;;
49590;SDS011;35496;-21.974;-46.800;2023-08-24T07:03:58;20.63;;;10.07;;
49590;SDS011;35496;-21.974;-46.800;2023-08-24T07:06:24;21.70;;;11.95;;
49590;SDS011;35496;-21.974;-46.800;2023-08-24T07:08:51;27.95;;;10.50;;
49590;SDS011;35496;-21.974;-46.800;2023-08-24T07:11:17;24.33;;;11.63;;
49590;SDS011;35496;-21.974;-46.800;2023-08-24T07:13:43;17.55;;;11.05;;
49590;SDS011;35496;-21.974;-46.800;2023-08-24T07:16:10;19.40;;;11.05;;
49590;SDS011;35496;-21.974;-46.800;2023-08-24T07:18:36;19.85;;;10.90;;
49590;SDS011;35496;-21.974;-46.800;2023-08-24T07:21:02;17.70;;;10.23;;
49590;SDS011;35496;-21.974;-46.800;2023-08-24T07:23:28;20.17;;;13.57;;
49590;SDS011;35496;-21.974;-46.800;2023-08-24T07:25:54;23.17;;;11.73;;
49590;SDS011;35496;-21.974;-46.800;2023-08-24T07:28:20;20.83;;;12.95;;
49590;SDS011;35496;-21.974;-46.800;2023-08-24T07:30:46;18.88;;;13.18;;
49590;SDS011;35496;-21.974;-46.800;2023-08-24T07:33:12;14.13;;;8.60;;
49590;SDS011;35496;-21.974;-46.800;2023-08-24T07:35:38;8.90;;;6.63;;
49590;SDS011;35496;-21.974;-46.800;2023-08-24T07:38:04;21.15;;;14.55;;
49590;SDS011;35496;-21.974;-46.800;2023-08-24T07:40:30;26.27;;;14.68;;
49590;SDS011;35496;-21.974;-46.800;2023-08-24T07:42:56;20.70;;;14.32;;
49590;SDS011;35496;-21.974;-46.800;2023-08-24T07:45:23;23.58;;;13.77;;
49590;SDS011;35496;-21.974;-46.800;2023-08-24T07:47:49;18.83;;;11.63;;
49590;SDS011;35496;-21.974;-46.800;2023-08-24T07:50:15;21.65;;;11.60;;
49590;SDS011;35496;-21.974;-46.800;2023-08-24T07:52:41;22.60;;;12.85;;
49590;SDS011;35496;-21.974;-46.800;2023-08-24T07:55:07;14.80;;;12.05;;
49590;SDS011;35496;-21.974;-46.800;2023-08-24T07:57:36;19.38;;;12.65;;
49590;SDS011;35496;-21.974;-46.800;2023-08-24T08:00:03;15.05;;;11.52;;
49590;SDS011;35496;-21.974;-46.800;2023-08-24T08:02:30;19.90;;;11.60;;
49590;SDS011;35496;-21.974;-46.800;2023-08-24T08:04:58;19.10;;;10.63;;
49590;SDS011;35496;-21.974;-46.800;2023-08-24T08:07:25;19.95;;;12.25;;
49590;SDS011;35496;-21.974;-46.800;2023-08-24T08:09:51;17.65;;;11.15;;
49590;SDS011;35496;-21.974;-46.800;2023-08-24T08:12:17;15.65;;;11.40;;
49590;SDS011;35496;-21.974;-46.800;2023-08-24T08:14:43;14.75;;;8.50;;
49590;SDS011;35496;-21.974;-46.800;2023-08-24T08:17:09;15.20;;;10.48;;
49590;SDS011;35496;-21.974;-46.800;2023-08-24T08:19:35;16.77;;;10.45;;
49590;SDS011;35496;-21.974;-46.800;2023-08-24T08:22:03;17.52;;;10.52;;
49590;SDS011;35496;-21.974;-46.800;2023-08-24T08:24:29;22.15;;;12.90;;
49590;SDS011;35496;-21.974;-46.800;2023-08-24T08:26:55;19.45;;;14.15;;
49590;SDS011;35496;-21.974;-46.800;2023-08-24T08:29:22;21.63;;;12.77;;
49590;SDS011;35496;-21.974;-46.800;2023-08-24T08:31:48;22.80;;;13.65;;
49590;SDS011;35496;-21.974;-46.800;2023-08-24T08:34:14;20.23;;;13.38;;
49590;SDS011;35496;-21.974;-46.800;2023-08-24T08:36:40;24.80;;;13.60;;
49590;SDS011;35496;-21.974;-46.800;2023-08-24T08:39:07;18.13;;;13.75;;
49590;SDS011;35496;-21.974;-46.800;2023-08-24T08:41:33;22.60;;;13.38;;
49590;SDS011;35496;-21.974;-46.800;2023-08-24T08:44:06;21.92;;;12.95;;
49590;SDS011;35496;-21.974;-46.800;2023-08-24T08:46:33;24.98;;;11.35;;
49590;SDS011;35496;-21.974;-46.800;2023-08-24T08:49:00;19.75;;;12.80;;
49590;SDS011;35496;-21.974;-46.800;2023-08-24T08:51:26;18.42;;;11.30;;
49590;SDS011;35496;-21.974;-46.800;2023-08-24T08:53:52;19.77;;;11.88;;
49590;SDS011;35496;-21.974;-46.800;2023-08-24T08:56:19;23.27;;;12.20;;
49590;SDS011;35496;-21.974;-46.800;2023-08-24T08:58:45;17.05;;;11.35;;
49590;SDS011;35496;-21.974;-46.800;2023-08-24T09:01:12;15.30;;;12.63;;
49590;SDS011;35496;-21.974;-46.800;2023-08-24T09:03:39;18.23;;;11.93;;
49590;SDS011;35496;-21.974;-46.800;2023-08-24T09:06:05;25.38;;;14.52;;
49590;SDS011;35496;-21.974;-46.800;2023-08-24T09:08:31;16.83;;;11.85;;
49590;SDS011;35496;-21.974;-46.800;2023-08-24T09:11:00;20.33;;;13.40;;
49590;SDS011;35496;-21.974;-46.800;2023-08-24T09:13:28;17.75;;;12.18;;
49590;SDS011;35496;-21.974;-46.800;2023-08-24T09:16:02;26.83;;;12.98;;
49590;SDS011;35496;-21.974;-46.800;2023-08-24T09:18:36;26.52;;;14.90;;
49590;SDS011;35496;-21.974;-46.800;2023-08-24T09:21:09;20.08;;;13.32;;
49590;SDS011;35496;-21.974;-46.800;2023-08-24T09:23:35;17.75;;;11.68;;
49590;SDS011;35496;-21.974;-46.800;2023-08-24T09:26:01;20.20;;;13.07;;
49590;SDS011;35496;-21.974;-46.800;2023-08-24T09:28:29;19.70;;;14.52;;
49590;SDS011;35496;-21.974;-46.800;2023-08-24T09:30:56;23.15;;;12.98;;
49590;SDS011;35496;-21.974;-46.800;2023-08-24T09:33:22;17.30;;;11.55;;
49590;SDS011;35496;-21.974;-46.800;2023-08-24T09:35:52;21.98;;;13.25;;
49590;SDS011;35496;-21.974;-46.800;2023-08-24T09:38:19;17.20;;;13.13;;
49590;SDS011;35496;-21.974;-46.800;2023-08-24T09:40:45;17.63;;;11.18;;
49590;SDS011;35496;-21.974;-46.800;2023-08-24T09:43:16;15.98;;;10.57;;
49590;SDS011;35496;-21.974;-46.800;2023-08-24T09:45:55;17.52;;;12.80;;
49590;SDS011;35496;-21.974;-46.800;2023-08-24T09:48:22;13.57;;;10.43;;
49590;SDS011;35496;-21.974;-46.800;2023-08-24T09:50:49;22.23;;;12.20;;
49590;SDS011;35496;-21.974;-46.800;2023-08-24T09:53:17;19.67;;;11.32;;
49590;SDS011;35496;-21.974;-46.800;2023-08-24T09:56:02;19.80;;;11.60;;
49590;SDS011;35496;-21.974;-46.800;2023-08-24T09:58:28;19.70;;;11.88;;
49590;SDS011;35496;-21.974;-46.800;2023-08-24T10:00:55;18.25;;;11.15;;
49590;SDS011;35496;-21.974;-46.800;2023-08-24T10:03:24;18.88;;;12.02;;
49590;SDS011;35496;-21.974;-46.800;2023-08-24T10:05:55;16.13;;;10.25;;
49590;SDS011;35496;-21.974;-46.800;2023-08-24T10:08:27;22.10;;;11.88;;
49590;SDS011;35496;-21.974;-46.800;2023-08-24T10:10:57;26.13;;;12.88;;
49590;SDS011;35496;-21.974;-46.800;2023-08-24T10:15:58;20.73;;;10.70;;
49590;SDS011;35496;-21.974;-46.800;2023-08-24T10:18:25;18.33;;;11.50;;
49590;SDS011;35496;-21.974;-46.800;2023-08-24T10:20:52;24.15;;;12.52;;
49590;SDS011;35496;-21.974;-46.800;2023-08-24T10:23:19;18.13;;;12.75;;
49590;SDS011;35496;-21.974;-46.800;2023-08-24T10:25:45;14.73;;;10.88;;
49590;SDS011;35496;-21.974;-46.800;2023-08-24T10:28:13;18.65;;;11.55;;
49590;SDS011;35496;-21.974;-46.800;2023-08-24T10:30:39;23.50;;;12.80;;
49590;SDS011;35496;-21.974;-46.800;2023-08-24T10:33:06;22.38;;;11.57;;
49590;SDS011;35496;-21.974;-46.800;2023-08-24T10:35:33;16.55;;;11.40;;
49590;SDS011;35496;-21.974;-46.800;2023-08-24T10:37:59;17.27;;;11.43;;
49590;SDS011;35496;-21.974;-46.800;2023-08-24T10:40:32;22.52;;;12.13;;
49590;SDS011;35496;-21.974;-46.800;2023-08-24T10:42:58;16.55;;;11.32;;
49590;SDS011;35496;-21.974;-46.800;2023-08-24T10:45:53;22.08;;;11.93;;
49590;SDS011;35496;-21.974;-46.800;2023-08-24T10:48:14;21.20;;;13.25;;
49590;SDS011;35496;-21.974;-46.800;2023-08-24T10:50:41;21.40;;;12.45;;
49590;SDS011;35496;-21.974;-46.800;2023-08-24T10:53:07;20.33;;;12.00;;
49590;SDS011;35496;-21.974;-46.800;2023-08-24T10:55:36;27.85;;;12.57;;
49590;SDS011;35496;-21.974;-46.800;2023-08-24T10:58:03;18.17;;;10.68;;
49590;SDS011;35496;-21.974;-46.800;2023-08-24T11:00:29;17.42;;;11.23;;
49590;SDS011;35496;-21.974;-46.800;2023-08-24T11:02:56;12.60;;;10.38;;
49590;SDS011;35496;-21.974;-46.800;2023-08-24T11:05:23;19.98;;;10.20;;
49590;SDS011;35496;-21.974;-46.800;2023-08-24T11:07:59;21.50;;;10.43;;
49590;SDS011;35496;-21.974;-46.800;2023-08-24T11:10:36;20.70;;;11.25;;
49590;SDS011;35496;-21.974;-46.800;2023-08-24T11:13:14;29.90;;;11.70;;
49590;SDS011;35496;-21.974;-46.800;2023-08-24T11:15:42;14.40;;;11.73;;
49590;SDS011;35496;-21.974;-46.800;2023-08-24T11:18:26;16.27;;;11.43;;
49590;SDS011;35496;-21.974;-46.800;2023-08-24T11:20:56;15.30;;;10.13;;
49590;SDS011;35496;-21.974;-46.800;2023-08-24T11:23:26;24.50;;;11.48;;
49590;SDS011;35496;-21.974;-46.800;2023-08-24T11:25:53;18.73;;;11.23;;
49590;SDS011;35496;-21.974;-46.800;2023-08-24T11:28:23;17.83;;;11.23;;
49590;SDS011;35496;-21.974;-46.800;2023-08-24T11:30:51;28.08;;;11.55;;
49590;SDS011;35496;-21.974;-46.800;2023-08-24T11:33:26;24.65;;;11.05;;
49590;SDS011;35496;-21.974;-46.800;2023-08-24T11:35:53;15.20;;;9.40;;
49590;SDS011;35496;-21.974;-46.800;2023-08-24T11:38:19;16.35;;;10.82;;
49590;SDS011;35496;-21.974;-46.800;2023-08-24T11:40:45;24.70;;;11.65;;
49590;SDS011;35496;-21.974;-46.800;2023-08-24T11:43:12;20.45;;;10.77;;
49590;SDS011;35496;-21.974;-46.800;2023-08-24T11:45:38;20.00;;;9.52;;
49590;SDS011;35496;-21.974;-46.800;2023-08-24T11:48:06;22.02;;;11.30;;
49590;SDS011;35496;-21.974;-46.800;2023-08-24T11:50:32;16.35;;;10.32;;
49590;SDS011;35496;-21.974;-46.800;2023-08-24T11:53:02;32.38;;;12.82;;
49590;SDS011;35496;-21.974;-46.800;2023-08-24T11:55:28;16.70;;;10.10;;
49590;SDS011;35496;-21.974;-46.800;2023-08-24T11:57:54;22.30;;;11.15;;
49590;SDS011;35496;-21.974;-46.800;2023-08-24T12:00:21;21.40;;;11.23;;
49590;SDS011;35496;-21.974;-46.800;2023-08-24T12:02:47;19.77;;;10.20;;
49590;SDS011;35496;-21.974;-46.800;2023-08-24T12:05:20;20.30;;;9.27;;
49590;SDS011;35496;-21.974;-46.800;2023-08-24T12:07:47;18.83;;;9.27;;
49590;SDS011;35496;-21.974;-46.800;2023-08-24T12:10:13;19.35;;;10.00;;
49590;SDS011;35496;-21.974;-46.800;2023-08-24T12:12:39;15.57;;;8.13;;
49590;SDS011;35496;-21.974;-46.800;2023-08-24T12:15:05;17.60;;;8.65;;
49590;SDS011;35496;-21.974;-46.800;2023-08-24T12:17:42;11.20;;;7.65;;
49590;SDS011;35496;-21.974;-46.800;2023-08-24T12:20:15;14.02;;;7.68;;
49590;SDS011;35496;-21.974;-46.800;2023-08-24T12:22:42;20.17;;;8.45;;
49590;SDS011;35496;-21.974;-46.800;2023-08-24T12:25:08;24.35;;;8.63;;
49590;SDS011;35496;-21.974;-46.800;2023-08-24T12:27:35;28.38;;;11.23;;
49590;SDS011;35496;-21.974;-46.800;2023-08-24T12:30:01;17.95;;;7.97;;
49590;SDS011;35496;-21.974;-46.800;2023-08-24T12:32:41;21.02;;;8.90;;
49590;SDS011;35496;-21.974;-46.800;2023-08-24T12:35:07;18.05;;;7.32;;
49590;SDS011;35496;-21.974;-46.800;2023-08-24T12:37:35;15.75;;;6.70;;
49590;SDS011;35496;-21.974;-46.800;2023-08-24T12:40:02;21.20;;;7.43;;
49590;SDS011;35496;-21.974;-46.800;2023-08-24T12:42:29;12.10;;;7.47;;
49590;SDS011;35496;-21.974;-46.800;2023-08-24T12:44:55;18.00;;;6.43;;
49590;SDS011;35496;-21.974;-46.800;2023-08-24T12:47:21;18.48;;;8.25;;
49590;SDS011;35496;-21.974;-46.800;2023-08-24T12:49:47;19.42;;;7.72;;
49590;SDS011;35496;-21.974;-46.800;2023-08-24T12:52:14;16.95;;;6.90;;
49590;SDS011;35496;-21.974;-46.800;2023-08-24T12:54:40;20.23;;;7.13;;
49590;SDS011;35496;-21.974;-46.800;2023-08-24T12:57:06;7.82;;;5.72;;
49590;SDS011;35496;-21.974;-46.800;2023-08-24T12:59:32;7.72;;;4.65;;
49590;SDS011;35496;-21.974;-46.800;2023-08-24T13:01:58;11.10;;;4.78;;
49590;SDS011;35496;-21.974;-46.800;2023-08-24T13:04:24;19.13;;;5.38;;
49590;SDS011;35496;-21.974;-46.800;2023-08-24T13:06:50;12.50;;;4.55;;
49590;SDS011;35496;-21.974;-46.800;2023-08-24T13:09:16;7.20;;;4.30;;
49590;SDS011;35496;-21.974;-46.800;2023-08-24T13:11:42;5.95;;;3.78;;
49590;SDS011;35496;-21.974;-46.800;2023-08-24T13:14:08;11.15;;;4.32;;
49590;SDS011;35496;-21.974;-46.800;2023-08-24T13:16:34;5.85;;;3.63;;
49590;SDS011;35496;-21.974;-46.800;2023-08-24T13:19:00;10.13;;;4.15;;
49590;SDS011;35496;-21.974;-46.800;2023-08-24T13:21:26;10.15;;;4.35;;
49590;SDS011;35496;-21.974;-46.800;2023-08-24T13:23:52;7.15;;;3.33;;
49590;SDS011;35496;-21.974;-46.800;2023-08-24T13:26:18;4.32;;;3.55;;
49590;SDS011;35496;-21.974;-46.800;2023-08-24T13:28:45;3.92;;;3.38;;
49590;SDS011;35496;-21.974;-46.800;2023-08-24T13:31:11;4.00;;;3.42;;
49590;SDS011;35496;-21.974;-46.800;2023-08-24T13:33:37;8.60;;;4.80;;
49590;SDS011;35496;-21.974;-46.800;2023-08-24T13:36:04;8.35;;;3.28;;
49590;SDS011;35496;-21.974;-46.800;2023-08-24T13:38:32;7.50;;;3.97;;
49590;SDS011;35496;-21.974;-46.800;2023-08-24T13:40:58;14.20;;;4.55;;
49590;SDS011;35496;-21.974;-46.800;2023-08-24T13:43:24;9.98;;;4.18;;
49590;SDS011;35496;-21.974;-46.800;2023-08-24T13:45:50;7.40;;;4.18;;
49590;SDS011;35496;-21.974;-46.800;2023-08-24T13:48:17;5.55;;;3.08;;
49590;SDS011;35496;-21.974;-46.800;2023-08-24T13:50:49;5.13;;;3.75;;
49590;SDS011;35496;-21.974;-46.800;2023-08-24T13:53:15;9.07;;;3.70;;
49590;SDS011;35496;-21.974;-46.800;2023-08-24T13:55:41;7.45;;;3.72;;
49590;SDS011;35496;-21.974;-46.800;2023-08-24T13:58:07;6.25;;;3.78;;
49590;SDS011;35496;-21.974;-46.800;2023-08-24T14:00:33;5.18;;;3.38;;
49590;SDS011;35496;-21.974;-46.800;2023-08-24T14:02:59;6.30;;;3.65;;
49590;SDS011;35496;-21.974;-46.800;2023-08-24T14:05:25;7.15;;;3.15;;